Enter the Airport ICAO Code

Search by Airport or City

Current Weather

LEMH | Menorca Airport (Mahón Airport)

Menorca, Balearic Islands, Spain

Last Update 14 Minutes Ago

Mostly Cloudy Sky

Temperature of 15 ºC

Light to Moderate Winds from SouthEast

Temperature

15 ºC

Dew Point Temperature

14 ºC

Relative Humidity

93.78 %

Wind Direction

SouthEast (140º, Without Significant Variations)

Wind Velocity

17 km/h (09 kt)

Gusts

None

Visibility

Reduced to 9.0 Kilometers

Sea Level Pressure

1013 hPa (Hectopascals)

Layers of Clouds

60% to 90% of Sky Covered from 183 mts (600 ft) Above Ground Level.

METAR LEMH 160800Z 14009KT 9000 BKN006 15/14 Q1013

Weather Forecast

LEMH | Menorca Airport (Mahón Airport)

Menorca, Balearic Islands, Spain

Forecast valid for the next 19 Hours

In the next 2 hours it is expected the begining of:

Moderate Winds from SouthEast

Maximum Temperature

19 ºC in 4 Hours

Minimum Temperature

12 ºC in -2 Hours

TAF LEMH 160659Z 1606/1703 20010KT 9999 FEW020 TX19/1612Z TN12/1606Z TEMPO 1607/1610 BKN010 BECMG 1607/1610 14012KT